createdAt,value
2018-04-02T00:01:59.520Z,97.40
2018-04-02T00:04:27.683Z,97.50
2018-04-02T00:06:55.856Z,97.50
2018-04-02T00:09:24.022Z,97.50
2018-04-02T00:11:52.205Z,97.40
2018-04-02T00:14:21.098Z,97.40
2018-04-02T00:16:50.026Z,97.80
2018-04-02T00:19:18.988Z,97.40
2018-04-02T00:21:47.237Z,97.40
2018-04-02T00:24:15.431Z,97.60
2018-04-02T00:26:43.641Z,97.50
2018-04-02T00:29:11.789Z,97.70
2018-04-02T00:31:39.940Z,97.60
2018-04-02T00:34:08.126Z,97.70
2018-04-02T00:36:36.313Z,97.90
2018-04-02T00:39:04.501Z,97.60
2018-04-02T00:41:32.603Z,97.50
2018-04-02T00:44:01.512Z,97.30
2018-04-02T00:46:30.473Z,97.30
2018-04-02T00:48:58.645Z,97.30
2018-04-02T00:51:26.755Z,97.40
2018-04-02T00:53:54.920Z,97.30
2018-04-02T00:56:23.047Z,97.50
2018-04-02T00:58:51.946Z,97.40
2018-04-02T01:01:20.144Z,97.40
2018-04-02T01:03:49.029Z,97.50
2018-04-02T01:06:17.952Z,97.60
2018-04-02T01:08:46.889Z,97.50
2018-04-02T01:11:14.999Z,97.50
2018-04-02T01:13:43.111Z,97.60
2018-04-02T01:16:12.001Z,97.60
2018-04-02T01:18:40.216Z,97.60
2018-04-02T01:21:09.091Z,97.90
2018-04-02T01:23:37.213Z,97.90
2018-04-02T01:26:05.360Z,97.80
2018-04-02T01:28:33.530Z,97.90
2018-04-02T01:31:01.758Z,97.90
2018-04-02T01:33:30.621Z,97.90
2018-04-02T01:35:58.965Z,97.90
2018-04-02T01:38:27.912Z,97.80
2018-04-02T01:40:56.054Z,97.70
2018-04-02T01:43:24.196Z,98.00
2018-04-02T01:45:52.348Z,97.90
2018-04-02T01:48:20.511Z,98.30
2018-04-02T01:50:48.640Z,97.90
2018-04-02T01:53:16.800Z,98.00
2018-04-02T01:55:44.926Z,98.10
2018-04-02T01:58:13.056Z,98.20
2018-04-02T02:00:41.214Z,98.60
2018-04-02T02:03:09.405Z,98.50
2018-04-02T02:05:37.526Z,98.40
2018-04-02T02:08:05.675Z,98.80
2018-04-02T02:10:34.566Z,98.50
2018-04-02T02:13:02.692Z,98.40
2018-04-02T02:15:30.850Z,98.40
2018-04-02T02:17:59.004Z,98.40
2018-04-02T02:20:27.152Z,98.40
2018-04-02T02:22:55.314Z,98.60
2018-04-02T02:25:23.412Z,98.40
2018-04-02T02:27:52.344Z,98.40
2018-04-02T02:30:20.437Z,98.40
2018-04-02T02:32:48.707Z,98.50
2018-04-02T02:35:16.848Z,98.70
2018-04-02T02:37:44.965Z,98.80
2018-04-02T02:40:13.112Z,98.80
2018-04-02T02:42:41.246Z,99.10
2018-04-02T02:45:09.415Z,99.10
2018-04-02T02:47:38.291Z,99.40
2018-04-02T02:50:06.456Z,99.30
2018-04-02T02:52:34.661Z,99.30
2018-04-02T02:55:02.742Z,99.30
2018-04-02T02:57:30.860Z,99.20
2018-04-02T02:59:59.801Z,98.80
2018-04-02T03:02:28.014Z,98.80
2018-04-02T03:04:56.128Z,99.40
2018-04-02T03:07:25.153Z,99.00
2018-04-02T03:09:53.310Z,99.00
2018-04-02T03:12:21.489Z,99.00
2018-04-02T03:14:49.636Z,99.00
2018-04-02T03:17:17.776Z,99.10
2018-04-02T03:19:46.792Z,99.10
2018-04-02T03:22:15.718Z,99.10
2018-04-02T03:24:43.869Z,99.10
2018-04-02T03:27:12.776Z,99.00
2018-04-02T03:29:41.696Z,99.10
2018-04-02T03:32:10.597Z,99.20
2018-04-02T03:34:39.477Z,99.70
2018-04-02T03:37:07.624Z,99.60
2018-04-02T03:39:35.799Z,99.30
2018-04-02T03:42:03.904Z,99.20
2018-04-02T03:44:32.096Z,99.10
2018-04-02T03:47:00.222Z,98.90
2018-04-02T03:49:29.104Z,99.20
2018-04-02T03:51:57.280Z,99.20
2018-04-02T03:54:25.393Z,99.60
2018-04-02T03:56:53.509Z,99.30
2018-04-02T03:59:21.606Z,99.10
2018-04-02T04:01:49.747Z,99.00
2018-04-02T04:04:18.656Z,99.30
2018-04-02T04:06:47.570Z,99.30
2018-04-02T04:09:15.722Z,99.20
2018-04-02T04:11:43.849Z,99.20
2018-04-02T04:14:11.967Z,99.20
2018-04-02T04:16:40.127Z,99.10
2018-04-02T04:19:08.273Z,99.10
2018-04-02T04:21:36.417Z,99.00
2018-04-02T04:24:04.587Z,99.00
2018-04-02T04:26:32.789Z,99.20
2018-04-02T04:29:00.924Z,99.20
2018-04-02T04:31:29.052Z,99.30
2018-04-02T04:33:57.202Z,99.20
2018-04-02T04:36:26.128Z,99.30
2018-04-02T04:38:54.384Z,99.30
2018-04-02T04:41:22.580Z,99.30
2018-04-02T04:43:51.489Z,99.10
2018-04-02T04:46:20.419Z,99.10
2018-04-02T04:48:48.577Z,99.10
2018-04-02T04:51:17.471Z,99.40
2018-04-02T04:53:46.413Z,99.40
2018-04-02T04:56:14.625Z,99.40
2018-04-02T04:58:42.841Z,99.50
2018-04-02T05:01:11.017Z,99.60
2018-04-02T05:03:39.152Z,99.70
2018-04-02T05:06:07.301Z,99.30
2018-04-02T05:08:36.434Z,99.10
2018-04-02T05:11:05.316Z,99.30
2018-04-02T05:13:34.223Z,98.60
2018-04-02T05:16:03.141Z,98.10
2018-04-02T05:18:32.072Z,98.00
2018-04-02T05:21:00.228Z,97.90
2018-04-02T05:23:29.104Z,97.60
2018-04-02T05:25:57.252Z,97.60
2018-04-02T05:28:25.390Z,97.40
2018-04-02T05:30:54.462Z,97.00
2018-04-02T05:33:23.385Z,96.80
2018-04-02T05:35:51.834Z,97.00
2018-04-02T05:38:19.997Z,96.50
2018-04-02T05:40:48.881Z,95.60
2018-04-02T05:43:17.780Z,95.60
2018-04-02T05:45:45.875Z,95.20
2018-04-02T05:48:13.979Z,94.70
2018-04-02T05:50:42.161Z,94.10
2018-04-02T05:53:11.013Z,94.60
2018-04-02T05:55:39.139Z,94.60
2018-04-02T05:58:08.052Z,92.50
2018-04-02T06:00:36.997Z,91.40
2018-04-02T06:03:05.128Z,91.30
2018-04-02T06:05:34.071Z,90.80
2018-04-02T06:08:02.307Z,90.80
2018-04-02T06:10:30.550Z,91.00
2018-04-02T06:12:59.400Z,91.20
2018-04-02T06:15:27.547Z,91.20
2018-04-02T06:17:55.708Z,90.50
2018-04-02T06:20:23.897Z,91.60
2018-04-02T06:22:52.008Z,86.80
2018-04-02T06:25:20.112Z,87.20
2018-04-02T06:27:48.234Z,86.60
2018-04-02T06:30:17.092Z,82.70
2018-04-02T06:32:45.193Z,82.80
2018-04-02T06:35:13.462Z,77.40
2018-04-02T06:37:41.602Z,76.30
2018-04-02T06:40:10.500Z,74.30
2018-04-02T06:42:39.383Z,73.30
2018-04-02T06:45:07.540Z,73.30
2018-04-02T06:47:36.373Z,69.00
2018-04-02T06:50:04.464Z,68.90
2018-04-02T06:52:32.751Z,70.10
2018-04-02T06:55:01.057Z,63.40
2018-04-02T06:57:29.982Z,66.40
2018-04-02T06:59:58.061Z,66.30
2018-04-02T07:02:26.233Z,63.50
2018-04-02T07:04:55.144Z,57.90
2018-04-02T07:07:23.391Z,57.90
2018-04-02T07:09:51.933Z,57.50
2018-04-02T07:12:20.055Z,53.80
2018-04-02T07:14:48.186Z,54.50
2018-04-02T07:17:17.064Z,53.20
2018-04-02T07:19:45.188Z,53.10
2018-04-02T07:22:13.316Z,52.50
2018-04-02T07:24:41.452Z,53.00
2018-04-02T07:27:09.635Z,54.20
2018-04-02T07:42:05.195Z,44.00
2018-04-02T07:44:34.109Z,43.80
2018-04-02T07:47:03.056Z,43.80
2018-04-02T07:49:31.312Z,43.70
2018-04-02T07:51:59.400Z,43.10
2018-04-02T07:54:27.540Z,45.70
2018-04-02T07:56:55.615Z,44.00
2018-04-02T07:59:23.898Z,43.10
2018-04-02T08:01:52.012Z,42.30
2018-04-02T08:04:20.273Z,40.60
2018-04-02T08:06:48.375Z,39.90
2018-04-02T08:09:16.530Z,37.10
2018-04-02T08:11:44.624Z,36.30
2018-04-02T08:14:12.797Z,38.30
2018-04-02T08:16:40.945Z,37.20
2018-04-02T08:19:09.855Z,36.40
2018-04-02T08:21:38.763Z,37.20
2018-04-02T08:24:06.923Z,37.20
2018-04-02T08:26:35.049Z,35.60
2018-04-02T08:29:03.286Z,34.70
2018-04-02T08:31:31.445Z,34.50
2018-04-02T08:33:59.548Z,34.30
2018-04-02T08:36:27.656Z,34.50
2018-04-02T08:38:55.833Z,35.60
2018-04-02T08:41:23.900Z,35.80
2018-04-02T08:43:52.113Z,39.40
2018-04-02T08:46:20.313Z,40.60
2018-04-02T08:48:48.446Z,37.60
2018-04-02T08:51:16.564Z,35.50
2018-04-02T08:53:44.729Z,37.10
2018-04-02T08:56:12.828Z,35.20
2018-04-02T08:58:40.995Z,34.00
2018-04-02T09:01:09.103Z,34.90
2018-04-02T09:03:37.296Z,36.80
2018-04-02T09:06:05.411Z,34.90
2018-04-02T09:08:33.519Z,33.40
2018-04-02T09:11:01.647Z,33.80
2018-04-02T09:13:29.759Z,34.90
2018-04-02T09:15:58.677Z,32.00
2018-04-02T09:18:26.876Z,32.00
2018-04-02T09:20:55.052Z,35.10
2018-04-02T09:23:23.221Z,35.60
2018-04-02T09:25:52.116Z,34.10
2018-04-02T09:28:20.266Z,34.00
2018-04-02T09:30:48.452Z,33.40
2018-04-02T09:33:17.334Z,32.70
2018-04-02T09:35:45.446Z,34.20
2018-04-02T09:38:13.618Z,34.40
2018-04-02T09:40:42.139Z,33.90
2018-04-02T09:43:10.256Z,34.00
2018-04-02T09:45:39.229Z,34.90
2018-04-02T09:48:07.489Z,34.80
2018-04-02T09:50:35.686Z,34.60
2018-04-02T09:53:03.807Z,34.50
2018-04-02T09:55:32.675Z,32.30
2018-04-02T09:58:00.799Z,31.40
2018-04-02T10:00:33.796Z,30.60
2018-04-02T10:03:01.856Z,30.60
2018-04-02T10:05:30.755Z,29.20
2018-04-02T10:07:58.869Z,29.90
2018-04-02T10:10:27.923Z,30.00
2018-04-02T10:12:55.930Z,30.00
2018-04-02T10:15:24.116Z,29.20
2018-04-02T10:17:52.297Z,30.00
2018-04-02T10:20:20.407Z,31.50
2018-04-02T10:22:48.513Z,31.10
2018-04-02T10:25:17.409Z,29.70
2018-04-02T10:27:46.293Z,31.20
2018-04-02T10:30:14.448Z,30.50
2018-04-02T10:32:42.588Z,31.40
2018-04-02T10:35:10.827Z,30.50
2018-04-02T10:37:39.770Z,29.80
2018-04-02T10:40:08.714Z,30.60
2018-04-02T10:42:36.841Z,30.50
2018-04-02T10:45:05.057Z,32.30
2018-04-02T10:47:33.927Z,31.40
2018-04-02T10:50:02.012Z,31.30
2018-04-02T10:52:30.219Z,30.80
2018-04-02T10:54:58.351Z,31.10
2018-04-02T10:57:26.457Z,29.90
2018-04-02T10:59:54.561Z,29.50
2018-04-02T11:02:22.658Z,30.40
2018-04-02T11:04:50.958Z,29.30
2018-04-02T11:07:19.505Z,27.70
2018-04-02T11:09:47.611Z,28.90
2018-04-02T11:12:15.769Z,28.30
2018-04-02T11:14:43.884Z,26.90
2018-04-02T11:17:12.019Z,28.30
2018-04-02T11:19:40.156Z,27.40
2018-04-02T11:22:08.363Z,27.00
2018-04-02T11:24:37.230Z,26.30
2018-04-02T11:27:05.335Z,26.30
2018-04-02T11:29:33.456Z,26.60
2018-04-02T11:32:01.569Z,27.00
2018-04-02T11:34:29.650Z,25.90
2018-04-02T11:36:57.895Z,26.10
2018-04-02T11:39:26.832Z,26.20
2018-04-02T11:41:54.955Z,26.20
2018-04-02T11:44:23.145Z,26.90
2018-04-02T11:46:51.273Z,25.60
2018-04-02T11:49:19.458Z,25.70
2018-04-02T11:51:47.593Z,25.90
2018-04-02T11:54:15.860Z,26.30
2018-04-02T11:56:44.051Z,26.90
2018-04-02T11:59:12.151Z,26.60
2018-04-02T12:01:40.322Z,26.50
2018-04-02T12:04:08.423Z,26.50
2018-04-02T12:06:36.521Z,26.60
2018-04-02T12:09:04.602Z,26.00
2018-04-02T12:11:32.756Z,24.10
2018-04-02T12:14:00.847Z,23.60
2018-04-02T12:16:29.083Z,24.10
2018-04-02T12:18:57.276Z,24.50
2018-04-02T12:21:26.202Z,23.80
2018-04-02T12:23:54.337Z,23.70
2018-04-02T12:26:22.436Z,24.20
2018-04-02T12:28:50.575Z,23.30
2018-04-02T12:31:18.799Z,23.90
2018-04-02T12:33:46.877Z,24.30
2018-04-02T12:36:15.038Z,23.20
2018-04-02T12:38:43.140Z,23.60
2018-04-02T12:41:11.329Z,23.60
2018-04-02T12:43:39.900Z,22.80
2018-04-02T12:46:08.035Z,23.40
2018-04-02T12:48:36.196Z,22.90
2018-04-02T12:51:04.430Z,23.10
2018-04-02T12:53:32.600Z,22.90
2018-04-02T12:56:00.712Z,22.30
2018-04-02T12:58:28.802Z,22.70
2018-04-02T13:00:56.907Z,22.00
2018-04-02T13:03:25.028Z,22.50
2018-04-02T13:05:53.223Z,22.40
2018-04-02T13:08:21.371Z,22.80
2018-04-02T13:10:49.544Z,22.30
2018-04-02T13:13:18.389Z,20.90
2018-04-02T13:15:46.541Z,20.40
2018-04-02T13:18:14.706Z,18.90
2018-04-02T13:20:42.862Z,19.60
2018-04-02T13:23:11.818Z,19.40
2018-04-02T13:25:39.979Z,19.40
2018-04-02T13:28:08.091Z,19.20
2018-04-02T13:30:36.292Z,19.50
2018-04-02T13:33:04.534Z,19.60
2018-04-02T13:35:32.611Z,19.80
2018-04-02T13:38:00.822Z,20.20
2018-04-02T13:40:28.935Z,20.80
2018-04-02T13:42:57.065Z,21.00
2018-04-02T13:45:26.021Z,20.20
2018-04-02T13:47:54.194Z,20.20
2018-04-02T13:50:22.358Z,18.10
2018-04-02T13:52:50.662Z,18.70
2018-04-02T13:55:18.812Z,19.70
2018-04-02T13:57:46.977Z,21.50
2018-04-02T14:00:15.019Z,21.40
2018-04-02T14:02:43.276Z,22.00
2018-04-02T14:05:11.368Z,21.90
2018-04-02T14:07:39.587Z,21.10
2018-04-02T14:10:07.720Z,21.00
2018-04-02T14:12:36.624Z,22.20
2018-04-02T14:15:05.518Z,22.70
2018-04-02T14:17:33.699Z,22.60
2018-04-02T14:20:01.784Z,22.60
2018-04-02T14:22:29.943Z,22.50
2018-04-02T14:24:58.075Z,22.80
2018-04-02T14:27:27.042Z,22.40
2018-04-02T14:29:55.148Z,22.30
2018-04-02T14:32:23.294Z,22.70
2018-04-02T14:34:51.514Z,22.10
2018-04-02T14:37:19.760Z,22.30
2018-04-02T14:39:47.844Z,22.60
2018-04-02T14:42:15.988Z,22.80
2018-04-02T14:44:44.912Z,23.30
2018-04-02T14:47:13.859Z,23.30
2018-04-02T14:49:41.952Z,23.30
2018-04-02T14:52:10.082Z,22.60
2018-04-02T14:54:38.975Z,23.60
2018-04-02T14:57:07.862Z,23.00
2018-04-02T14:59:35.948Z,22.90
2018-04-02T15:02:04.031Z,23.20
2018-04-02T15:04:32.184Z,23.90
2018-04-02T15:07:00.331Z,24.20
2018-04-02T15:09:28.567Z,23.20
2018-04-02T15:11:56.747Z,23.50
2018-04-02T15:14:24.903Z,23.30
2018-04-02T15:16:52.993Z,23.60
2018-04-02T15:19:21.191Z,24.10
2018-04-02T15:21:50.122Z,25.00
2018-04-02T15:24:18.291Z,24.50
2018-04-02T15:26:46.413Z,24.70
2018-04-02T15:29:14.604Z,24.90
2018-04-02T15:31:42.690Z,25.10
2018-04-02T15:34:10.936Z,25.10
2018-04-02T15:36:39.070Z,25.00
2018-04-02T15:39:07.992Z,24.40
2018-04-02T15:41:36.983Z,24.40
2018-04-02T15:44:05.897Z,24.30
2018-04-02T15:46:34.832Z,24.40
2018-04-02T15:49:02.972Z,24.40
2018-04-02T15:51:31.844Z,24.70
2018-04-02T15:54:00.006Z,24.70
2018-04-02T15:56:28.145Z,25.30
2018-04-02T15:58:57.079Z,25.80
2018-04-02T16:01:25.186Z,25.70
2018-04-02T16:03:53.326Z,25.10
2018-04-02T16:06:22.237Z,25.50
2018-04-02T16:08:50.301Z,25.50
2018-04-02T16:11:18.963Z,25.60
2018-04-02T16:13:47.127Z,25.60
2018-04-02T16:16:15.263Z,25.80
2018-04-02T16:18:43.422Z,26.20
2018-04-02T16:21:11.530Z,26.80
2018-04-02T16:23:39.654Z,27.00
2018-04-02T16:26:07.773Z,26.60
2018-04-02T16:28:35.968Z,27.30
2018-04-02T16:31:04.267Z,27.70
2018-04-02T16:33:33.148Z,28.10
2018-04-02T16:36:01.389Z,28.60
2018-04-02T16:38:29.553Z,28.40
2018-04-02T16:40:57.693Z,28.20
2018-04-02T16:43:25.844Z,28.20
2018-04-02T16:45:54.751Z,28.60
2018-04-02T16:48:23.663Z,28.70
2018-04-02T16:50:52.653Z,29.30
2018-04-02T16:53:20.790Z,29.20
2018-04-02T16:55:48.961Z,29.10
2018-04-02T16:58:17.109Z,29.40
2018-04-02T17:00:45.220Z,29.90
2018-04-02T17:03:13.356Z,30.10
2018-04-02T17:05:41.527Z,31.70
2018-04-02T17:08:09.669Z,32.20
2018-04-02T17:10:38.624Z,31.30
2018-04-02T17:13:06.800Z,31.30
2018-04-02T17:15:34.927Z,31.90
2018-04-02T17:18:03.070Z,32.00
2018-04-02T17:20:31.169Z,32.20
2018-04-02T17:22:59.328Z,32.70
2018-04-02T17:25:27.445Z,32.70
2018-04-02T17:27:55.567Z,32.00
2018-04-02T17:30:24.460Z,31.90
2018-04-02T17:32:52.594Z,31.90
2018-04-02T17:35:20.750Z,32.00
2018-04-02T17:37:49.654Z,32.30
2018-04-02T17:40:18.548Z,33.20
2018-04-02T17:42:46.649Z,33.10
2018-04-02T17:45:14.811Z,34.00
2018-04-02T17:47:42.905Z,34.20
2018-04-02T17:50:11.027Z,34.50
2018-04-02T17:52:39.158Z,34.30
2018-04-02T17:55:07.433Z,34.60
2018-04-02T17:57:35.520Z,34.70
2018-04-02T18:00:03.656Z,34.50
2018-04-02T18:02:31.798Z,34.50
2018-04-02T18:04:59.964Z,34.20
2018-04-02T18:07:28.060Z,34.30
2018-04-02T18:09:56.277Z,34.30
2018-04-02T18:12:24.394Z,34.90
2018-04-02T18:14:52.523Z,35.40
2018-04-02T18:17:20.657Z,35.00
2018-04-02T18:19:48.851Z,35.00
2018-04-02T18:22:16.910Z,35.40
2018-04-02T18:24:45.788Z,35.40
2018-04-02T18:27:13.958Z,35.30
2018-04-02T18:29:42.078Z,35.80
2018-04-02T18:32:10.987Z,34.90
2018-04-02T18:34:39.888Z,35.00
2018-04-02T18:37:08.785Z,35.10
2018-04-02T18:39:37.754Z,35.50
2018-04-02T18:42:05.883Z,35.20
2018-04-02T18:44:34.836Z,35.30
2018-04-02T18:47:03.004Z,35.20
2018-04-02T18:49:31.621Z,35.60
2018-04-02T18:51:59.906Z,35.00
2018-04-02T18:54:28.023Z,34.50
2018-04-02T18:56:56.123Z,34.30
2018-04-02T18:59:25.084Z,34.70
2018-04-02T19:01:53.164Z,34.50
2018-04-02T19:04:21.285Z,35.10
2018-04-02T19:06:49.389Z,35.50
2018-04-02T19:09:18.363Z,36.70
2018-04-02T19:11:46.508Z,36.70
2018-04-02T19:14:14.638Z,37.30
2018-04-02T19:16:42.800Z,37.10
2018-04-02T19:19:10.987Z,37.40
2018-04-02T19:21:39.165Z,37.80
2018-04-02T19:24:07.248Z,38.20
2018-04-02T19:26:35.416Z,38.20
2018-04-02T19:29:03.532Z,38.70
2018-04-02T19:31:31.673Z,38.90
2018-04-02T19:33:59.767Z,39.20
2018-04-02T19:36:27.934Z,39.50
2018-04-02T19:38:56.050Z,39.60
2018-04-02T19:41:24.144Z,39.50
2018-04-02T19:43:52.253Z,39.80
2018-04-02T19:46:20.415Z,40.00
2018-04-02T19:48:48.517Z,40.40
2018-04-02T19:51:16.672Z,40.90
2018-04-02T19:53:44.767Z,40.50
2018-04-02T19:56:12.909Z,39.90
2018-04-02T19:58:41.021Z,39.80
2018-04-02T20:01:09.240Z,38.90
2018-04-02T20:03:37.315Z,39.00
2018-04-02T20:06:05.545Z,39.50
2018-04-02T20:08:33.708Z,39.70
2018-04-02T20:11:01.964Z,39.70
2018-04-02T20:13:30.040Z,40.60
2018-04-02T20:15:58.157Z,40.60
2018-04-02T20:18:26.276Z,40.80
2018-04-02T20:20:54.389Z,40.70
2018-04-02T20:23:22.532Z,40.90
2018-04-02T20:25:50.687Z,40.70
2018-04-02T20:28:18.791Z,41.10
2018-04-02T20:30:47.141Z,42.30
2018-04-02T20:33:15.823Z,42.40
2018-04-02T20:35:44.800Z,43.00
2018-04-02T20:38:12.911Z,43.00
2018-04-02T20:40:41.810Z,44.50
2018-04-02T20:43:10.692Z,45.60
2018-04-02T20:45:38.852Z,45.50
2018-04-02T20:48:06.976Z,46.20
2018-04-02T20:50:35.086Z,46.10
2018-04-02T20:53:03.954Z,47.30
2018-04-02T20:55:32.065Z,47.30
2018-04-02T20:58:00.944Z,48.20
2018-04-02T21:00:29.056Z,48.20
2018-04-02T21:02:57.949Z,48.30
2018-04-02T21:05:26.823Z,48.30
2018-04-02T21:07:55.042Z,48.30
2018-04-02T21:10:23.963Z,48.20
2018-04-02T21:12:52.068Z,48.00
2018-04-02T21:15:20.236Z,47.50
2018-04-02T21:17:49.133Z,47.90
2018-04-02T21:20:17.274Z,47.90
2018-04-02T21:22:45.419Z,48.40
2018-04-02T21:25:13.526Z,48.40
2018-04-02T21:27:41.685Z,48.90
2018-04-02T21:30:09.801Z,48.40
2018-04-02T21:32:37.955Z,48.40
2018-04-02T21:35:06.131Z,49.00
2018-04-02T21:37:35.018Z,48.50
2018-04-02T21:40:03.925Z,48.70
2018-04-02T21:42:32.069Z,48.60
2018-04-02T21:45:00.362Z,49.80
2018-04-02T21:47:28.512Z,50.20
2018-04-02T21:49:56.652Z,49.90
2018-04-02T21:52:24.753Z,49.80
2018-04-02T21:54:53.660Z,48.80
2018-04-02T21:57:22.570Z,48.70
2018-04-02T21:59:51.436Z,49.00
2018-04-02T22:02:19.614Z,49.00
2018-04-02T22:04:47.729Z,49.50
2018-04-02T22:07:15.895Z,49.90
2018-04-02T22:09:44.024Z,50.30
2018-04-02T22:12:12.154Z,50.50
2018-04-02T22:14:40.317Z,50.60
2018-04-02T22:17:08.453Z,50.40
2018-04-02T22:19:36.567Z,50.10
2018-04-02T22:22:05.542Z,50.00
2018-04-02T22:24:35.239Z,50.00
2018-04-02T22:27:03.397Z,50.40
2018-04-02T22:29:31.517Z,50.80
2018-04-02T22:31:59.682Z,51.00
2018-04-02T22:34:27.842Z,51.50
2018-04-02T22:36:56.769Z,52.40
2018-04-02T22:39:24.871Z,52.40
2018-04-02T22:41:53.070Z,52.40
2018-04-02T22:44:21.258Z,53.20
2018-04-02T22:46:49.359Z,54.10
2018-04-02T22:49:17.466Z,54.20
2018-04-02T22:51:46.388Z,54.70
2018-04-02T22:54:14.530Z,54.60
2018-04-02T22:56:42.643Z,55.50
2018-04-02T22:59:10.789Z,55.70
2018-04-02T23:01:38.965Z,56.20
2018-04-02T23:04:07.068Z,56.50
2018-04-02T23:06:35.264Z,56.70
2018-04-02T23:09:03.380Z,57.10
2018-04-02T23:11:32.305Z,57.00
2018-04-02T23:14:00.445Z,56.90
2018-04-02T23:16:29.350Z,57.10
2018-04-02T23:18:57.441Z,57.70
2018-04-02T23:21:26.402Z,57.00
2018-04-02T23:23:54.533Z,56.90
2018-04-02T23:26:23.426Z,57.50
2018-04-02T23:28:51.573Z,57.50
2018-04-02T23:31:19.681Z,57.10
2018-04-02T23:33:47.843Z,57.10
2018-04-02T23:36:15.942Z,57.70
2018-04-02T23:38:44.082Z,57.80
2018-04-02T23:41:12.587Z,57.90
2018-04-02T23:43:40.709Z,57.00
2018-04-02T23:46:08.849Z,56.90
2018-04-02T23:48:37.012Z,56.50
2018-04-02T23:51:06.211Z,54.90
2018-04-02T23:53:34.333Z,54.90
2018-04-02T23:56:02.443Z,53.90
2018-04-02T23:58:30.624Z,54.00
